sensor_id;sensor_type;location;lat;lon;timestamp;P1;durP1;ratioP1;P2;durP2;ratioP2
7336;SDS011;54510;42.016;23.098;2023-07-13T00:00:38;7.22;;;4.97;;
7336;SDS011;54510;42.016;23.098;2023-07-13T00:03:03;8.13;;;4.78;;
7336;SDS011;54510;42.016;23.098;2023-07-13T00:05:29;8.65;;;5.75;;
7336;SDS011;54510;42.016;23.098;2023-07-13T00:07:55;6.55;;;5.30;;
7336;SDS011;54510;42.016;23.098;2023-07-13T00:10:21;6.63;;;4.93;;
7336;SDS011;54510;42.016;23.098;2023-07-13T00:12:47;6.38;;;5.05;;
7336;SDS011;54510;42.016;23.098;2023-07-13T00:15:14;7.22;;;4.82;;
7336;SDS011;54510;42.016;23.098;2023-07-13T00:17:47;7.57;;;5.60;;
7336;SDS011;54510;42.016;23.098;2023-07-13T00:20:13;6.50;;;4.95;;
7336;SDS011;54510;42.016;23.098;2023-07-13T00:22:38;10.23;;;5.65;;
7336;SDS011;54510;42.016;23.098;2023-07-13T00:25:04;7.88;;;5.80;;
7336;SDS011;54510;42.016;23.098;2023-07-13T00:27:30;8.00;;;5.82;;
7336;SDS011;54510;42.016;23.098;2023-07-13T00:29:57;9.98;;;5.32;;
7336;SDS011;54510;42.016;23.098;2023-07-13T00:32:23;7.43;;;4.80;;
7336;SDS011;54510;42.016;23.098;2023-07-13T00:34:50;6.22;;;4.53;;
7336;SDS011;54510;42.016;23.098;2023-07-13T00:37:16;6.10;;;4.70;;
7336;SDS011;54510;42.016;23.098;2023-07-13T00:39:42;6.97;;;4.65;;
7336;SDS011;54510;42.016;23.098;2023-07-13T00:42:07;6.40;;;4.63;;
7336;SDS011;54510;42.016;23.098;2023-07-13T00:44:33;6.80;;;4.65;;
7336;SDS011;54510;42.016;23.098;2023-07-13T00:46:58;5.80;;;4.05;;
7336;SDS011;54510;42.016;23.098;2023-07-13T00:49:24;6.57;;;4.45;;
7336;SDS011;54510;42.016;23.098;2023-07-13T00:51:56;9.23;;;4.95;;
7336;SDS011;54510;42.016;23.098;2023-07-13T00:54:28;7.55;;;5.00;;
7336;SDS011;54510;42.016;23.098;2023-07-13T00:59:23;7.80;;;4.95;;
7336;SDS011;54510;42.016;23.098;2023-07-13T01:01:49;11.32;;;5.97;;
7336;SDS011;54510;42.016;23.098;2023-07-13T01:04:16;7.35;;;5.78;;
7336;SDS011;54510;42.016;23.098;2023-07-13T01:06:42;11.18;;;5.32;;
7336;SDS011;54510;42.016;23.098;2023-07-13T01:09:09;6.38;;;5.40;;
7336;SDS011;54510;42.016;23.098;2023-07-13T01:11:35;9.70;;;6.13;;
7336;SDS011;54510;42.016;23.098;2023-07-13T01:14:01;7.85;;;5.05;;
7336;SDS011;54510;42.016;23.098;2023-07-13T01:16:28;9.23;;;5.78;;
7336;SDS011;54510;42.016;23.098;2023-07-13T01:18:56;7.20;;;4.47;;
7336;SDS011;54510;42.016;23.098;2023-07-13T01:21:27;5.97;;;4.90;;
7336;SDS011;54510;42.016;23.098;2023-07-13T01:23:53;6.15;;;4.95;;
7336;SDS011;54510;42.016;23.098;2023-07-13T01:26:19;6.22;;;4.97;;
7336;SDS011;54510;42.016;23.098;2023-07-13T01:28:44;8.50;;;5.05;;
7336;SDS011;54510;42.016;23.098;2023-07-13T01:31:10;6.97;;;4.78;;
7336;SDS011;54510;42.016;23.098;2023-07-13T01:33:36;8.60;;;5.60;;
7336;SDS011;54510;42.016;23.098;2023-07-13T01:36:04;8.10;;;4.68;;
7336;SDS011;54510;42.016;23.098;2023-07-13T01:38:31;7.75;;;5.00;;
7336;SDS011;54510;42.016;23.098;2023-07-13T01:40:56;6.43;;;4.75;;
7336;SDS011;54510;42.016;23.098;2023-07-13T01:43:21;8.95;;;5.28;;
7336;SDS011;54510;42.016;23.098;2023-07-13T01:45:47;7.38;;;4.75;;
7336;SDS011;54510;42.016;23.098;2023-07-13T01:48:13;12.57;;;5.45;;
7336;SDS011;54510;42.016;23.098;2023-07-13T01:50:38;5.65;;;4.35;;
7336;SDS011;54510;42.016;23.098;2023-07-13T01:53:04;7.45;;;4.40;;
7336;SDS011;54510;42.016;23.098;2023-07-13T01:55:30;6.57;;;5.20;;
7336;SDS011;54510;42.016;23.098;2023-07-13T01:57:56;5.78;;;4.35;;
7336;SDS011;54510;42.016;23.098;2023-07-13T02:00:22;6.28;;;4.45;;
7336;SDS011;54510;42.016;23.098;2023-07-13T02:02:47;9.90;;;5.47;;
7336;SDS011;54510;42.016;23.098;2023-07-13T02:05:13;10.52;;;4.53;;
7336;SDS011;54510;42.016;23.098;2023-07-13T02:07:39;5.45;;;4.57;;
7336;SDS011;54510;42.016;23.098;2023-07-13T02:10:06;9.00;;;4.80;;
7336;SDS011;54510;42.016;23.098;2023-07-13T02:12:32;7.13;;;4.85;;
7336;SDS011;54510;42.016;23.098;2023-07-13T02:14:58;7.22;;;4.70;;
7336;SDS011;54510;42.016;23.098;2023-07-13T02:17:23;9.30;;;5.55;;
7336;SDS011;54510;42.016;23.098;2023-07-13T02:19:49;9.45;;;5.60;;
7336;SDS011;54510;42.016;23.098;2023-07-13T02:22:14;11.05;;;6.15;;
7336;SDS011;54510;42.016;23.098;2023-07-13T02:24:39;10.10;;;5.38;;
7336;SDS011;54510;42.016;23.098;2023-07-13T02:27:05;18.33;;;6.65;;
7336;SDS011;54510;42.016;23.098;2023-07-13T02:29:31;12.18;;;5.78;;
7336;SDS011;54510;42.016;23.098;2023-07-13T02:31:56;8.43;;;5.28;;
7336;SDS011;54510;42.016;23.098;2023-07-13T02:34:21;8.82;;;5.82;;
7336;SDS011;54510;42.016;23.098;2023-07-13T02:36:47;8.90;;;6.28;;
7336;SDS011;54510;42.016;23.098;2023-07-13T02:39:13;10.55;;;6.15;;
7336;SDS011;54510;42.016;23.098;2023-07-13T02:41:38;7.82;;;5.55;;
7336;SDS011;54510;42.016;23.098;2023-07-13T02:44:04;9.25;;;5.75;;
7336;SDS011;54510;42.016;23.098;2023-07-13T02:46:30;10.35;;;5.57;;
7336;SDS011;54510;42.016;23.098;2023-07-13T02:48:56;14.55;;;6.88;;
7336;SDS011;54510;42.016;23.098;2023-07-13T02:51:21;13.98;;;6.03;;
7336;SDS011;54510;42.016;23.098;2023-07-13T02:53:47;12.90;;;6.75;;
7336;SDS011;54510;42.016;23.098;2023-07-13T02:56:12;10.18;;;5.43;;
7336;SDS011;54510;42.016;23.098;2023-07-13T02:58:38;10.43;;;6.00;;
7336;SDS011;54510;42.016;23.098;2023-07-13T03:01:07;16.48;;;8.38;;
7336;SDS011;54510;42.016;23.098;2023-07-13T03:03:34;25.30;;;8.38;;
7336;SDS011;54510;42.016;23.098;2023-07-13T03:06:00;15.68;;;6.82;;
7336;SDS011;54510;42.016;23.098;2023-07-13T03:08:28;8.75;;;5.03;;
7336;SDS011;54510;42.016;23.098;2023-07-13T03:13:27;7.65;;;5.28;;
7336;SDS011;54510;42.016;23.098;2023-07-13T03:15:52;6.38;;;4.57;;
7336;SDS011;54510;42.016;23.098;2023-07-13T03:18:18;7.00;;;4.75;;
7336;SDS011;54510;42.016;23.098;2023-07-13T03:20:43;6.43;;;5.00;;
7336;SDS011;54510;42.016;23.098;2023-07-13T03:23:08;6.93;;;5.10;;
7336;SDS011;54510;42.016;23.098;2023-07-13T03:25:34;7.65;;;5.05;;
7336;SDS011;54510;42.016;23.098;2023-07-13T03:28:00;7.75;;;5.13;;
7336;SDS011;54510;42.016;23.098;2023-07-13T03:30:25;9.20;;;5.55;;
7336;SDS011;54510;42.016;23.098;2023-07-13T03:32:50;7.57;;;5.15;;
7336;SDS011;54510;42.016;23.098;2023-07-13T03:35:16;8.10;;;5.72;;
7336;SDS011;54510;42.016;23.098;2023-07-13T03:37:42;8.27;;;5.30;;
7336;SDS011;54510;42.016;23.098;2023-07-13T03:40:08;7.72;;;5.43;;
7336;SDS011;54510;42.016;23.098;2023-07-13T03:42:34;7.70;;;5.63;;
7336;SDS011;54510;42.016;23.098;2023-07-13T03:44:59;7.85;;;5.38;;
7336;SDS011;54510;42.016;23.098;2023-07-13T03:47:24;8.82;;;5.20;;
7336;SDS011;54510;42.016;23.098;2023-07-13T03:49:50;9.27;;;5.00;;
7336;SDS011;54510;42.016;23.098;2023-07-13T03:52:15;6.97;;;4.97;;
7336;SDS011;54510;42.016;23.098;2023-07-13T03:54:40;8.98;;;5.70;;
7336;SDS011;54510;42.016;23.098;2023-07-13T03:57:06;9.75;;;6.03;;
7336;SDS011;54510;42.016;23.098;2023-07-13T03:59:31;10.98;;;5.53;;
7336;SDS011;54510;42.016;23.098;2023-07-13T04:01:57;19.02;;;7.72;;
7336;SDS011;54510;42.016;23.098;2023-07-13T04:04:22;12.20;;;6.20;;
7336;SDS011;54510;42.016;23.098;2023-07-13T04:06:48;11.15;;;7.00;;
7336;SDS011;54510;42.016;23.098;2023-07-13T04:09:13;10.57;;;6.35;;
7336;SDS011;54510;42.016;23.098;2023-07-13T04:11:38;11.52;;;6.60;;
7336;SDS011;54510;42.016;23.098;2023-07-13T04:14:04;14.05;;;6.50;;
7336;SDS011;54510;42.016;23.098;2023-07-13T04:16:29;10.05;;;6.40;;
7336;SDS011;54510;42.016;23.098;2023-07-13T04:18:55;11.93;;;6.65;;
7336;SDS011;54510;42.016;23.098;2023-07-13T04:21:24;12.70;;;7.55;;
7336;SDS011;54510;42.016;23.098;2023-07-13T04:23:50;11.32;;;7.38;;
7336;SDS011;54510;42.016;23.098;2023-07-13T04:26:15;14.70;;;7.43;;
7336;SDS011;54510;42.016;23.098;2023-07-13T04:28:41;12.25;;;7.10;;
7336;SDS011;54510;42.016;23.098;2023-07-13T04:31:06;13.68;;;6.60;;
7336;SDS011;54510;42.016;23.098;2023-07-13T04:33:32;8.93;;;6.40;;
7336;SDS011;54510;42.016;23.098;2023-07-13T04:35:57;15.25;;;7.18;;
7336;SDS011;54510;42.016;23.098;2023-07-13T04:38:25;9.95;;;6.97;;
7336;SDS011;54510;42.016;23.098;2023-07-13T04:40:54;9.80;;;7.18;;
7336;SDS011;54510;42.016;23.098;2023-07-13T04:43:21;9.60;;;6.57;;
7336;SDS011;54510;42.016;23.098;2023-07-13T04:45:47;9.98;;;7.22;;
7336;SDS011;54510;42.016;23.098;2023-07-13T04:48:12;10.85;;;6.65;;
7336;SDS011;54510;42.016;23.098;2023-07-13T04:50:38;11.10;;;7.60;;
7336;SDS011;54510;42.016;23.098;2023-07-13T04:53:03;9.73;;;7.47;;
7336;SDS011;54510;42.016;23.098;2023-07-13T04:55:29;14.48;;;6.90;;
7336;SDS011;54510;42.016;23.098;2023-07-13T04:57:56;11.15;;;7.47;;
7336;SDS011;54510;42.016;23.098;2023-07-13T05:00:23;10.00;;;7.22;;
7336;SDS011;54510;42.016;23.098;2023-07-13T05:02:49;14.27;;;7.50;;
7336;SDS011;54510;42.016;23.098;2023-07-13T05:05:16;11.00;;;7.75;;
7336;SDS011;54510;42.016;23.098;2023-07-13T05:07:41;10.20;;;7.38;;
7336;SDS011;54510;42.016;23.098;2023-07-13T05:10:07;9.57;;;7.28;;
7336;SDS011;54510;42.016;23.098;2023-07-13T05:12:33;10.60;;;7.50;;
7336;SDS011;54510;42.016;23.098;2023-07-13T05:14:58;7.82;;;6.60;;
7336;SDS011;54510;42.016;23.098;2023-07-13T05:17:24;12.18;;;8.38;;
7336;SDS011;54510;42.016;23.098;2023-07-13T05:19:49;12.95;;;7.45;;
7336;SDS011;54510;42.016;23.098;2023-07-13T05:22:15;11.77;;;7.03;;
7336;SDS011;54510;42.016;23.098;2023-07-13T05:24:40;13.43;;;7.15;;
7336;SDS011;54510;42.016;23.098;2023-07-13T05:27:05;9.25;;;7.68;;
7336;SDS011;54510;42.016;23.098;2023-07-13T05:29:31;12.23;;;7.40;;
7336;SDS011;54510;42.016;23.098;2023-07-13T05:31:56;15.38;;;7.63;;
7336;SDS011;54510;42.016;23.098;2023-07-13T05:34:22;14.60;;;8.40;;
7336;SDS011;54510;42.016;23.098;2023-07-13T05:36:47;11.18;;;7.68;;
7336;SDS011;54510;42.016;23.098;2023-07-13T05:39:14;12.98;;;8.27;;
7336;SDS011;54510;42.016;23.098;2023-07-13T05:41:39;12.40;;;7.88;;
7336;SDS011;54510;42.016;23.098;2023-07-13T05:44:04;13.93;;;8.20;;
7336;SDS011;54510;42.016;23.098;2023-07-13T05:46:30;11.27;;;7.60;;
7336;SDS011;54510;42.016;23.098;2023-07-13T05:48:56;12.18;;;8.23;;
7336;SDS011;54510;42.016;23.098;2023-07-13T05:51:21;13.77;;;7.88;;
7336;SDS011;54510;42.016;23.098;2023-07-13T05:53:46;15.85;;;7.80;;
7336;SDS011;54510;42.016;23.098;2023-07-13T05:56:12;17.50;;;8.90;;
7336;SDS011;54510;42.016;23.098;2023-07-13T05:58:37;15.23;;;8.52;;
7336;SDS011;54510;42.016;23.098;2023-07-13T06:01:04;12.88;;;8.63;;
7336;SDS011;54510;42.016;23.098;2023-07-13T06:03:31;13.38;;;8.07;;
7336;SDS011;54510;42.016;23.098;2023-07-13T06:05:57;13.35;;;9.23;;
7336;SDS011;54510;42.016;23.098;2023-07-13T06:08:22;17.27;;;8.05;;
7336;SDS011;54510;42.016;23.098;2023-07-13T06:10:48;20.40;;;11.45;;
7336;SDS011;54510;42.016;23.098;2023-07-13T06:13:13;18.77;;;9.35;;
7336;SDS011;54510;42.016;23.098;2023-07-13T06:15:39;21.83;;;11.18;;
7336;SDS011;54510;42.016;23.098;2023-07-13T06:18:04;18.70;;;9.60;;
7336;SDS011;54510;42.016;23.098;2023-07-13T06:20:29;20.70;;;10.45;;
7336;SDS011;54510;42.016;23.098;2023-07-13T06:22:55;12.20;;;8.10;;
7336;SDS011;54510;42.016;23.098;2023-07-13T06:25:20;51.83;;;13.50;;
7336;SDS011;54510;42.016;23.098;2023-07-13T06:27:46;15.63;;;8.45;;
7336;SDS011;54510;42.016;23.098;2023-07-13T06:30:11;9.45;;;7.40;;
7336;SDS011;54510;42.016;23.098;2023-07-13T06:32:37;9.60;;;7.63;;
7336;SDS011;54510;42.016;23.098;2023-07-13T06:35:03;14.45;;;9.25;;
7336;SDS011;54510;42.016;23.098;2023-07-13T06:37:28;18.13;;;11.20;;
7336;SDS011;54510;42.016;23.098;2023-07-13T06:39:54;16.85;;;8.40;;
7336;SDS011;54510;42.016;23.098;2023-07-13T06:42:19;13.45;;;8.30;;
7336;SDS011;54510;42.016;23.098;2023-07-13T06:44:45;14.32;;;8.93;;
7336;SDS011;54510;42.016;23.098;2023-07-13T06:47:10;15.85;;;10.70;;
7336;SDS011;54510;42.016;23.098;2023-07-13T06:49:35;12.20;;;8.27;;
7336;SDS011;54510;42.016;23.098;2023-07-13T06:52:01;11.82;;;8.32;;
7336;SDS011;54510;42.016;23.098;2023-07-13T06:54:26;11.90;;;8.20;;
7336;SDS011;54510;42.016;23.098;2023-07-13T06:56:52;14.55;;;8.50;;
7336;SDS011;54510;42.016;23.098;2023-07-13T06:59:18;11.23;;;8.30;;
7336;SDS011;54510;42.016;23.098;2023-07-13T07:01:44;11.70;;;10.18;;
7336;SDS011;54510;42.016;23.098;2023-07-13T07:04:09;16.85;;;11.27;;
7336;SDS011;54510;42.016;23.098;2023-07-13T07:06:35;11.98;;;8.35;;
7336;SDS011;54510;42.016;23.098;2023-07-13T07:09:00;14.00;;;7.55;;
7336;SDS011;54510;42.016;23.098;2023-07-13T07:11:26;11.65;;;7.88;;
7336;SDS011;54510;42.016;23.098;2023-07-13T07:13:52;11.50;;;8.73;;
7336;SDS011;54510;42.016;23.098;2023-07-13T07:16:18;13.65;;;8.30;;
7336;SDS011;54510;42.016;23.098;2023-07-13T07:18:45;16.17;;;9.60;;
7336;SDS011;54510;42.016;23.098;2023-07-13T07:21:11;19.83;;;11.00;;
7336;SDS011;54510;42.016;23.098;2023-07-13T07:23:37;17.75;;;8.55;;
7336;SDS011;54510;42.016;23.098;2023-07-13T07:26:02;11.98;;;8.18;;
7336;SDS011;54510;42.016;23.098;2023-07-13T07:28:28;34.70;;;26.00;;
7336;SDS011;54510;42.016;23.098;2023-07-13T07:30:55;21.85;;;12.18;;
7336;SDS011;54510;42.016;23.098;2023-07-13T07:33:22;14.20;;;9.80;;
7336;SDS011;54510;42.016;23.098;2023-07-13T07:35:48;21.30;;;10.95;;
7336;SDS011;54510;42.016;23.098;2023-07-13T07:38:13;17.02;;;11.40;;
7336;SDS011;54510;42.016;23.098;2023-07-13T07:40:39;13.32;;;9.00;;
7336;SDS011;54510;42.016;23.098;2023-07-13T07:43:06;13.30;;;8.75;;
7336;SDS011;54510;42.016;23.098;2023-07-13T07:45:32;13.93;;;8.80;;
7336;SDS011;54510;42.016;23.098;2023-07-13T07:47:57;13.35;;;9.02;;
7336;SDS011;54510;42.016;23.098;2023-07-13T07:50:24;10.88;;;8.90;;
7336;SDS011;54510;42.016;23.098;2023-07-13T07:52:51;13.10;;;8.55;;
7336;SDS011;54510;42.016;23.098;2023-07-13T07:55:16;12.93;;;8.63;;
7336;SDS011;54510;42.016;23.098;2023-07-13T07:57:42;11.75;;;9.05;;
7336;SDS011;54510;42.016;23.098;2023-07-13T08:00:08;11.43;;;8.57;;
7336;SDS011;54510;42.016;23.098;2023-07-13T08:02:33;11.82;;;9.43;;
7336;SDS011;54510;42.016;23.098;2023-07-13T08:04:59;11.75;;;8.25;;
7336;SDS011;54510;42.016;23.098;2023-07-13T08:07:24;12.32;;;7.60;;
7336;SDS011;54510;42.016;23.098;2023-07-13T08:09:53;13.30;;;8.07;;
7336;SDS011;54510;42.016;23.098;2023-07-13T08:12:18;17.80;;;8.73;;
7336;SDS011;54510;42.016;23.098;2023-07-13T08:14:44;11.85;;;7.43;;
7336;SDS011;54510;42.016;23.098;2023-07-13T08:17:09;16.40;;;8.65;;
7336;SDS011;54510;42.016;23.098;2023-07-13T08:19:35;19.65;;;12.75;;
7336;SDS011;54510;42.016;23.098;2023-07-13T08:22:00;16.77;;;9.23;;
7336;SDS011;54510;42.016;23.098;2023-07-13T08:24:26;15.93;;;10.02;;
7336;SDS011;54510;42.016;23.098;2023-07-13T08:26:51;14.93;;;8.15;;
7336;SDS011;54510;42.016;23.098;2023-07-13T08:29:17;13.88;;;8.13;;
7336;SDS011;54510;42.016;23.098;2023-07-13T08:31:43;9.95;;;7.75;;
7336;SDS011;54510;42.016;23.098;2023-07-13T08:34:11;10.60;;;6.90;;
7336;SDS011;54510;42.016;23.098;2023-07-13T08:36:36;13.88;;;7.75;;
7336;SDS011;54510;42.016;23.098;2023-07-13T08:39:02;8.85;;;7.22;;
7336;SDS011;54510;42.016;23.098;2023-07-13T08:41:27;9.27;;;6.90;;
7336;SDS011;54510;42.016;23.098;2023-07-13T08:43:56;16.63;;;7.57;;
7336;SDS011;54510;42.016;23.098;2023-07-13T08:46:29;16.00;;;7.35;;
7336;SDS011;54510;42.016;23.098;2023-07-13T08:49:02;11.80;;;7.78;;
7336;SDS011;54510;42.016;23.098;2023-07-13T08:51:33;13.23;;;7.47;;
7336;SDS011;54510;42.016;23.098;2023-07-13T08:54:07;10.93;;;7.78;;
7336;SDS011;54510;42.016;23.098;2023-07-13T08:56:55;16.98;;;7.70;;
7336;SDS011;54510;42.016;23.098;2023-07-13T08:59:24;11.45;;;8.43;;
7336;SDS011;54510;42.016;23.098;2023-07-13T09:02:03;12.20;;;7.13;;
7336;SDS011;54510;42.016;23.098;2023-07-13T09:04:35;12.07;;;7.22;;
7336;SDS011;54510;42.016;23.098;2023-07-13T09:12:28;9.50;;;7.40;;
7336;SDS011;54510;42.016;23.098;2023-07-13T09:14:55;13.32;;;6.20;;
7336;SDS011;54510;42.016;23.098;2023-07-13T09:17:25;9.60;;;7.32;;
7336;SDS011;54510;42.016;23.098;2023-07-13T09:20:02;7.35;;;5.38;;
7336;SDS011;54510;42.016;23.098;2023-07-13T09:22:34;9.18;;;6.13;;
7336;SDS011;54510;42.016;23.098;2023-07-13T09:28:00;9.48;;;6.60;;
7336;SDS011;54510;42.016;23.098;2023-07-13T09:30:42;8.25;;;6.10;;
7336;SDS011;54510;42.016;23.098;2023-07-13T09:33:09;9.10;;;6.22;;
7336;SDS011;54510;42.016;23.098;2023-07-13T09:35:35;11.93;;;6.90;;
7336;SDS011;54510;42.016;23.098;2023-07-13T09:38:13;9.38;;;6.80;;
7336;SDS011;54510;42.016;23.098;2023-07-13T09:40:43;8.68;;;6.50;;
7336;SDS011;54510;42.016;23.098;2023-07-13T09:43:17;13.07;;;5.70;;
7336;SDS011;54510;42.016;23.098;2023-07-13T09:45:45;8.23;;;5.97;;
7336;SDS011;54510;42.016;23.098;2023-07-13T09:48:13;9.57;;;5.90;;
7336;SDS011;54510;42.016;23.098;2023-07-13T09:50:40;6.85;;;6.05;;
7336;SDS011;54510;42.016;23.098;2023-07-13T09:53:11;12.75;;;5.70;;
7336;SDS011;54510;42.016;23.098;2023-07-13T09:55:42;10.30;;;5.80;;
7336;SDS011;54510;42.016;23.098;2023-07-13T09:58:15;12.13;;;5.97;;
7336;SDS011;54510;42.016;23.098;2023-07-13T10:00:54;16.90;;;6.85;;
7336;SDS011;54510;42.016;23.098;2023-07-13T10:03:26;5.93;;;4.97;;
7336;SDS011;54510;42.016;23.098;2023-07-13T10:05:53;13.27;;;7.55;;
7336;SDS011;54510;42.016;23.098;2023-07-13T10:08:26;8.50;;;6.30;;
7336;SDS011;54510;42.016;23.098;2023-07-13T10:11:00;13.05;;;7.90;;
7336;SDS011;54510;42.016;23.098;2023-07-13T10:13:34;7.43;;;5.03;;
7336;SDS011;54510;42.016;23.098;2023-07-13T10:16:02;9.70;;;6.25;;
7336;SDS011;54510;42.016;23.098;2023-07-13T10:18:31;10.80;;;5.97;;
7336;SDS011;54510;42.016;23.098;2023-07-13T10:21:52;9.18;;;6.40;;
7336;SDS011;54510;42.016;23.098;2023-07-13T10:24:21;7.40;;;4.40;;
7336;SDS011;54510;42.016;23.098;2023-07-13T10:29:30;6.28;;;4.03;;
7336;SDS011;54510;42.016;23.098;2023-07-13T10:32:04;8.57;;;4.32;;
7336;SDS011;54510;42.016;23.098;2023-07-13T10:34:35;5.28;;;4.65;;
7336;SDS011;54510;42.016;23.098;2023-07-13T10:37:01;7.93;;;5.13;;
7336;SDS011;54510;42.016;23.098;2023-07-13T10:39:27;8.38;;;4.93;;
7336;SDS011;54510;42.016;23.098;2023-07-13T10:41:59;8.38;;;4.60;;
7336;SDS011;54510;42.016;23.098;2023-07-13T10:44:30;8.75;;;5.55;;
7336;SDS011;54510;42.016;23.098;2023-07-13T10:46:57;7.32;;;4.22;;
7336;SDS011;54510;42.016;23.098;2023-07-13T10:49:26;6.65;;;4.45;;
7336;SDS011;54510;42.016;23.098;2023-07-13T10:51:53;7.10;;;4.85;;
7336;SDS011;54510;42.016;23.098;2023-07-13T10:54:26;6.72;;;5.28;;
7336;SDS011;54510;42.016;23.098;2023-07-13T10:57:06;8.02;;;4.65;;
7336;SDS011;54510;42.016;23.098;2023-07-13T10:59:33;7.47;;;4.45;;
7336;SDS011;54510;42.016;23.098;2023-07-13T11:02:08;6.15;;;4.57;;
7336;SDS011;54510;42.016;23.098;2023-07-13T11:04:41;4.90;;;3.95;;
7336;SDS011;54510;42.016;23.098;2023-07-13T11:07:11;8.65;;;4.15;;
7336;SDS011;54510;42.016;23.098;2023-07-13T11:09:44;5.28;;;4.18;;
7336;SDS011;54510;42.016;23.098;2023-07-13T11:22:44;34.53;;;6.85;;
7336;SDS011;54510;42.016;23.098;2023-07-13T11:27:52;12.55;;;5.20;;
7336;SDS011;54510;42.016;23.098;2023-07-13T11:33:07;6.43;;;4.07;;
7336;SDS011;54510;42.016;23.098;2023-07-13T11:35:38;8.05;;;4.00;;
7336;SDS011;54510;42.016;23.098;2023-07-13T11:38:17;11.02;;;6.10;;
7336;SDS011;54510;42.016;23.098;2023-07-13T11:40:50;6.80;;;4.03;;
7336;SDS011;54510;42.016;23.098;2023-07-13T11:43:19;7.78;;;5.03;;
7336;SDS011;54510;42.016;23.098;2023-07-13T11:45:45;7.97;;;4.70;;
7336;SDS011;54510;42.016;23.098;2023-07-13T11:48:20;8.70;;;3.75;;
7336;SDS011;54510;42.016;23.098;2023-07-13T11:51:01;9.32;;;4.13;;
7336;SDS011;54510;42.016;23.098;2023-07-13T11:53:38;6.88;;;3.55;;
7336;SDS011;54510;42.016;23.098;2023-07-13T11:56:06;8.73;;;3.67;;
7336;SDS011;54510;42.016;23.098;2023-07-13T11:58:32;8.05;;;4.03;;
7336;SDS011;54510;42.016;23.098;2023-07-13T12:00:59;9.68;;;4.25;;
7336;SDS011;54510;42.016;23.098;2023-07-13T12:03:29;5.72;;;3.85;;
7336;SDS011;54510;42.016;23.098;2023-07-13T12:05:57;6.32;;;4.38;;
7336;SDS011;54510;42.016;23.098;2023-07-13T12:08:25;6.78;;;3.95;;
7336;SDS011;54510;42.016;23.098;2023-07-13T12:10:56;7.20;;;3.78;;
7336;SDS011;54510;42.016;23.098;2023-07-13T12:13:26;7.50;;;3.60;;
7336;SDS011;54510;42.016;23.098;2023-07-13T12:15:54;7.35;;;3.58;;
7336;SDS011;54510;42.016;23.098;2023-07-13T12:18:22;8.25;;;4.03;;
7336;SDS011;54510;42.016;23.098;2023-07-13T12:20:49;10.35;;;4.00;;
7336;SDS011;54510;42.016;23.098;2023-07-13T12:25:53;6.40;;;4.03;;
7336;SDS011;54510;42.016;23.098;2023-07-13T12:28:20;8.73;;;6.05;;
7336;SDS011;54510;42.016;23.098;2023-07-13T12:31:07;6.80;;;3.80;;
7336;SDS011;54510;42.016;23.098;2023-07-13T12:34:08;11.15;;;3.72;;
7336;SDS011;54510;42.016;23.098;2023-07-13T12:36:37;7.90;;;3.70;;
7336;SDS011;54510;42.016;23.098;2023-07-13T12:39:15;7.32;;;4.13;;
7336;SDS011;54510;42.016;23.098;2023-07-13T12:41:44;5.85;;;4.00;;
7336;SDS011;54510;42.016;23.098;2023-07-13T12:44:43;8.20;;;3.50;;
7336;SDS011;54510;42.016;23.098;2023-07-13T12:47:06;8.55;;;3.97;;
7336;SDS011;54510;42.016;23.098;2023-07-13T12:49:39;8.80;;;4.15;;
7336;SDS011;54510;42.016;23.098;2023-07-13T12:52:12;7.47;;;4.38;;
7336;SDS011;54510;42.016;23.098;2023-07-13T12:54:40;4.47;;;3.88;;
7336;SDS011;54510;42.016;23.098;2023-07-13T12:57:05;8.32;;;4.20;;
7336;SDS011;54510;42.016;23.098;2023-07-13T12:59:37;7.97;;;4.10;;
7336;SDS011;54510;42.016;23.098;2023-07-13T13:02:05;7.28;;;4.15;;
7336;SDS011;54510;42.016;23.098;2023-07-13T13:05:04;7.10;;;4.38;;
7336;SDS011;54510;42.016;23.098;2023-07-13T13:07:31;10.68;;;4.60;;
7336;SDS011;54510;42.016;23.098;2023-07-13T13:09:56;10.88;;;3.80;;
7336;SDS011;54510;42.016;23.098;2023-07-13T13:12:22;6.15;;;3.63;;
7336;SDS011;54510;42.016;23.098;2023-07-13T13:14:51;9.48;;;4.38;;
7336;SDS011;54510;42.016;23.098;2023-07-13T13:17:19;5.28;;;3.63;;
7336;SDS011;54510;42.016;23.098;2023-07-13T13:19:49;11.35;;;4.47;;
7336;SDS011;54510;42.016;23.098;2023-07-13T13:22:15;8.25;;;3.70;;
7336;SDS011;54510;42.016;23.098;2023-07-13T13:24:40;10.25;;;4.40;;
7336;SDS011;54510;42.016;23.098;2023-07-13T13:27:09;7.68;;;4.60;;
7336;SDS011;54510;42.016;23.098;2023-07-13T13:29:40;6.47;;;3.63;;
7336;SDS011;54510;42.016;23.098;2023-07-13T13:32:09;8.43;;;4.13;;
7336;SDS011;54510;42.016;23.098;2023-07-13T13:34:37;10.35;;;3.78;;
7336;SDS011;54510;42.016;23.098;2023-07-13T13:37:02;6.55;;;4.43;;
7336;SDS011;54510;42.016;23.098;2023-07-13T13:39:30;7.90;;;3.92;;
7336;SDS011;54510;42.016;23.098;2023-07-13T13:41:59;6.03;;;4.10;;
7336;SDS011;54510;42.016;23.098;2023-07-13T13:44:25;6.68;;;3.78;;
7336;SDS011;54510;42.016;23.098;2023-07-13T13:46:51;6.05;;;3.22;;
7336;SDS011;54510;42.016;23.098;2023-07-13T13:49:20;6.43;;;3.63;;
7336;SDS011;54510;42.016;23.098;2023-07-13T13:51:48;7.32;;;3.80;;
7336;SDS011;54510;42.016;23.098;2023-07-13T13:54:15;10.70;;;4.50;;
7336;SDS011;54510;42.016;23.098;2023-07-13T13:56:46;8.70;;;4.20;;
7336;SDS011;54510;42.016;23.098;2023-07-13T14:01:39;5.93;;;3.53;;
7336;SDS011;54510;42.016;23.098;2023-07-13T14:04:06;11.18;;;4.28;;
7336;SDS011;54510;42.016;23.098;2023-07-13T14:06:39;7.32;;;3.20;;
7336;SDS011;54510;42.016;23.098;2023-07-13T14:09:05;5.85;;;3.30;;
7336;SDS011;54510;42.016;23.098;2023-07-13T14:11:36;6.70;;;3.03;;
7336;SDS011;54510;42.016;23.098;2023-07-13T14:14:01;7.60;;;3.30;;
7336;SDS011;54510;42.016;23.098;2023-07-13T14:16:30;7.93;;;4.50;;
7336;SDS011;54510;42.016;23.098;2023-07-13T14:18:57;6.47;;;4.15;;
7336;SDS011;54510;42.016;23.098;2023-07-13T14:21:25;8.73;;;4.10;;
7336;SDS011;54510;42.016;23.098;2023-07-13T14:23:51;9.02;;;3.92;;
7336;SDS011;54510;42.016;23.098;2023-07-13T14:26:19;7.50;;;3.58;;
7336;SDS011;54510;42.016;23.098;2023-07-13T14:28:53;6.95;;;2.70;;
7336;SDS011;54510;42.016;23.098;2023-07-13T14:31:23;5.97;;;3.00;;
7336;SDS011;54510;42.016;23.098;2023-07-13T14:33:49;4.32;;;3.22;;
7336;SDS011;54510;42.016;23.098;2023-07-13T14:36:21;6.30;;;3.95;;
7336;SDS011;54510;42.016;23.098;2023-07-13T14:38:52;6.55;;;2.85;;
7336;SDS011;54510;42.016;23.098;2023-07-13T14:41:18;5.78;;;3.15;;
7336;SDS011;54510;42.016;23.098;2023-07-13T14:43:44;8.50;;;2.78;;
7336;SDS011;54510;42.016;23.098;2023-07-13T14:46:18;9.35;;;2.90;;
7336;SDS011;54510;42.016;23.098;2023-07-13T14:51:54;6.53;;;3.00;;
7336;SDS011;54510;42.016;23.098;2023-07-13T14:54:22;8.05;;;2.67;;
7336;SDS011;54510;42.016;23.098;2023-07-13T14:56:48;7.28;;;2.50;;
7336;SDS011;54510;42.016;23.098;2023-07-13T14:59:14;9.23;;;3.17;;
7336;SDS011;54510;42.016;23.098;2023-07-13T15:01:39;8.80;;;2.65;;
7336;SDS011;54510;42.016;23.098;2023-07-13T15:04:06;9.35;;;3.20;;
7336;SDS011;54510;42.016;23.098;2023-07-13T15:06:50;6.68;;;2.58;;
7336;SDS011;54510;42.016;23.098;2023-07-13T15:09:25;6.25;;;2.95;;
7336;SDS011;54510;42.016;23.098;2023-07-13T15:11:52;7.22;;;3.17;;
7336;SDS011;54510;42.016;23.098;2023-07-13T15:14:19;7.97;;;2.70;;
7336;SDS011;54510;42.016;23.098;2023-07-13T15:16:45;7.10;;;2.92;;
7336;SDS011;54510;42.016;23.098;2023-07-13T15:19:16;4.25;;;2.78;;
7336;SDS011;54510;42.016;23.098;2023-07-13T15:21:43;5.82;;;2.65;;
7336;SDS011;54510;42.016;23.098;2023-07-13T15:24:09;4.22;;;2.33;;